Terminal Aerodrome Forecast
Issued by NWS Goodland, KS

Home | Current Version | Previous Version | Text Only | Print | Product List | Glossary On
Versions: 1 2 3 4 5 6 7 8 9 10 11 12 13 14
000
FTUS43 KGLD 221100
TAFGLD
TAF
KGLD 221139Z 2212/2312 18011KT P6SM SCT150
     FM221500 18027G39KT P6SM FEW080 SCT120
     FM230000 18025G35KT P6SM VCTS SCT070CB BKN130
     FM230300 17023G33KT P6SM SCT080 BKN150=

USA.gov is the U.S. government's official web portal to all federal, state and local government web resources and services.